createdAt,value
2022-12-19T02:40:08.955Z,99.90
2022-12-19T02:42:44.026Z,99.90
2022-12-19T02:45:20.053Z,99.90
2022-12-19T02:48:08.487Z,99.90
2022-12-19T02:50:49.934Z,99.90
2022-12-19T02:53:23.651Z,99.90
2022-12-19T02:56:24.953Z,99.90
2022-12-19T02:59:35.992Z,99.90
2022-12-19T03:02:38.719Z,99.90
2022-12-19T03:05:26.951Z,99.90
2022-12-19T03:08:28.826Z,99.50
2022-12-19T03:11:10.787Z,99.90
2022-12-19T03:13:58.798Z,99.50
2022-12-19T03:16:29.849Z,99.70
2022-12-19T03:19:00.653Z,99.10
2022-12-19T03:21:50.411Z,99.70
2022-12-19T03:24:21.662Z,98.40
2022-12-19T03:27:17.172Z,98.80
2022-12-19T03:30:02.520Z,98.10
2022-12-19T03:32:35.198Z,98.50
2022-12-19T03:35:12.335Z,97.40
2022-12-19T03:37:45.047Z,97.50
2022-12-19T03:40:20.399Z,97.60
2022-12-19T03:43:11.641Z,97.60
2022-12-19T03:46:07.033Z,97.90
2022-12-19T03:48:57.327Z,97.30
2022-12-19T03:51:59.233Z,97.20
2022-12-19T03:54:34.747Z,96.90
2022-12-19T04:05:05.432Z,97.30
2022-12-19T04:07:37.301Z,96.50
2022-12-19T04:10:13.131Z,96.80
2022-12-19T04:15:18.821Z,96.30
2022-12-19T04:18:00.571Z,96.50
2022-12-19T04:20:33.004Z,96.30
2022-12-19T04:23:26.447Z,96.60
2022-12-19T04:26:02.593Z,96.30
2022-12-19T04:28:41.083Z,96.60
2022-12-19T04:31:15.389Z,96.60
2022-12-19T04:33:46.121Z,96.60
2022-12-19T04:36:16.802Z,96.80
2022-12-19T04:38:47.533Z,96.70
2022-12-19T04:41:17.593Z,96.40
2022-12-19T04:43:48.456Z,96.40
2022-12-19T04:46:19.378Z,96.10
2022-12-19T04:48:49.754Z,96.50
2022-12-19T04:51:20.234Z,96.50
2022-12-19T04:53:50.221Z,96.40
2022-12-19T04:56:20.329Z,96.20
2022-12-19T04:58:50.453Z,96.30
2022-12-19T05:01:21.584Z,96.10
2022-12-19T05:03:55.219Z,96.10
2022-12-19T05:06:27.860Z,96.10
2022-12-19T05:08:58.236Z,96.10
2022-12-19T05:11:28.308Z,95.70
2022-12-19T05:14:00.339Z,96.20
2022-12-19T05:16:31.059Z,96.00
2022-12-19T05:19:02.463Z,95.90
2022-12-19T05:21:33.270Z,96.40
2022-12-19T05:24:03.807Z,96.00
2022-12-19T05:26:34.725Z,95.50
2022-12-19T05:29:05.256Z,95.40
2022-12-19T05:31:36.421Z,95.80
2022-12-19T05:34:06.897Z,96.30
2022-12-19T05:36:37.691Z,95.50
2022-12-19T05:39:08.600Z,96.00
2022-12-19T05:41:39.311Z,95.40
2022-12-19T05:44:09.531Z,96.00
2022-12-19T05:46:39.945Z,96.60
2022-12-19T06:55:04.517Z,95.60
2022-12-19T06:57:35.320Z,95.10
2022-12-19T07:02:38.017Z,94.80
2022-12-19T12:30:03.732Z,95.00
